sensor_id;sensor_type;location;lat;lon;timestamp;temperature;humidity
57833;DHT22;43667;53.036;6.740;2022-10-16T00:01:47;11.40;99.90
57833;DHT22;43667;53.036;6.740;2022-10-16T00:04:13;11.40;99.90
57833;DHT22;43667;53.036;6.740;2022-10-16T00:06:39;11.40;99.90
57833;DHT22;43667;53.036;6.740;2022-10-16T00:09:05;11.40;99.90
57833;DHT22;43667;53.036;6.740;2022-10-16T00:11:36;11.40;99.90
57833;DHT22;43667;53.036;6.740;2022-10-16T00:14:06;11.30;99.90
57833;DHT22;43667;53.036;6.740;2022-10-16T00:16:33;11.30;99.90
57833;DHT22;43667;53.036;6.740;2022-10-16T00:18:59;11.40;99.90
57833;DHT22;43667;53.036;6.740;2022-10-16T00:21:27;11.30;99.90
57833;DHT22;43667;53.036;6.740;2022-10-16T00:23:59;11.30;99.90
57833;DHT22;43667;53.036;6.740;2022-10-16T00:26:27;11.30;99.90
57833;DHT22;43667;53.036;6.740;2022-10-16T00:28:53;11.30;99.90
57833;DHT22;43667;53.036;6.740;2022-10-16T00:31:20;11.30;99.90
57833;DHT22;43667;53.036;6.740;2022-10-16T00:33:46;11.30;99.90
57833;DHT22;43667;53.036;6.740;2022-10-16T00:36:15;11.30;99.90
57833;DHT22;43667;53.036;6.740;2022-10-16T00:38:41;11.30;99.90
57833;DHT22;43667;53.036;6.740;2022-10-16T00:41:09;11.40;99.90
57833;DHT22;43667;53.036;6.740;2022-10-16T00:43:51;11.40;99.90
57833;DHT22;43667;53.036;6.740;2022-10-16T00:46:23;11.40;99.90
57833;DHT22;43667;53.036;6.740;2022-10-16T00:51:31;11.40;99.90
57833;DHT22;43667;53.036;6.740;2022-10-16T00:53:59;11.40;99.90
57833;DHT22;43667;53.036;6.740;2022-10-16T00:56:25;11.40;99.90
57833;DHT22;43667;53.036;6.740;2022-10-16T00:58:51;11.40;99.90
57833;DHT22;43667;53.036;6.740;2022-10-16T01:01:16;11.40;99.90
57833;DHT22;43667;53.036;6.740;2022-10-16T01:03:42;11.40;99.90
57833;DHT22;43667;53.036;6.740;2022-10-16T01:06:31;11.30;99.90
57833;DHT22;43667;53.036;6.740;2022-10-16T01:14:26;11.40;99.90
57833;DHT22;43667;53.036;6.740;2022-10-16T01:20:22;11.40;99.90
57833;DHT22;43667;53.036;6.740;2022-10-16T01:23:07;11.40;99.90
57833;DHT22;43667;53.036;6.740;2022-10-16T01:28:25;11.40;99.90
57833;DHT22;43667;53.036;6.740;2022-10-16T01:30:54;11.40;99.90
57833;DHT22;43667;53.036;6.740;2022-10-16T01:33:26;11.40;99.90
57833;DHT22;43667;53.036;6.740;2022-10-16T01:35:58;11.40;99.90
57833;DHT22;43667;53.036;6.740;2022-10-16T01:38:38;11.40;99.90
57833;DHT22;43667;53.036;6.740;2022-10-16T01:41:18;11.40;99.90
57833;DHT22;43667;53.036;6.740;2022-10-16T01:43:49;11.50;99.90
57833;DHT22;43667;53.036;6.740;2022-10-16T01:46:19;11.50;99.90
57833;DHT22;43667;53.036;6.740;2022-10-16T01:48:48;11.50;99.90
57833;DHT22;43667;53.036;6.740;2022-10-16T01:51:15;11.60;99.90
57833;DHT22;43667;53.036;6.740;2022-10-16T01:53:44;11.70;99.90
57833;DHT22;43667;53.036;6.740;2022-10-16T01:56:11;11.70;99.90
57833;DHT22;43667;53.036;6.740;2022-10-16T01:58:43;11.70;99.90
57833;DHT22;43667;53.036;6.740;2022-10-16T02:01:11;11.70;99.90
57833;DHT22;43667;53.036;6.740;2022-10-16T02:03:40;11.70;99.90
57833;DHT22;43667;53.036;6.740;2022-10-16T02:06:08;11.70;99.90
57833;DHT22;43667;53.036;6.740;2022-10-16T02:08:34;11.70;99.90
57833;DHT22;43667;53.036;6.740;2022-10-16T02:11:00;11.70;99.90
57833;DHT22;43667;53.036;6.740;2022-10-16T02:13:39;11.70;99.90
57833;DHT22;43667;53.036;6.740;2022-10-16T02:16:07;11.80;99.90
57833;DHT22;43667;53.036;6.740;2022-10-16T02:18:32;11.80;99.90
57833;DHT22;43667;53.036;6.740;2022-10-16T02:21:23;11.80;99.90
57833;DHT22;43667;53.036;6.740;2022-10-16T02:24:22;11.80;99.90
57833;DHT22;43667;53.036;6.740;2022-10-16T02:27:06;11.80;99.90
57833;DHT22;43667;53.036;6.740;2022-10-16T02:29:39;11.80;99.90
57833;DHT22;43667;53.036;6.740;2022-10-16T02:32:07;11.80;99.90
57833;DHT22;43667;53.036;6.740;2022-10-16T02:34:34;11.80;99.90
57833;DHT22;43667;53.036;6.740;2022-10-16T02:37:01;11.90;99.90
57833;DHT22;43667;53.036;6.740;2022-10-16T02:39:29;11.90;99.90
57833;DHT22;43667;53.036;6.740;2022-10-16T02:41:55;11.90;99.90
57833;DHT22;43667;53.036;6.740;2022-10-16T02:44:21;11.90;99.90
57833;DHT22;43667;53.036;6.740;2022-10-16T02:46:46;11.90;99.90
57833;DHT22;43667;53.036;6.740;2022-10-16T02:49:12;12.00;99.90
57833;DHT22;43667;53.036;6.740;2022-10-16T02:51:37;11.90;99.90
57833;DHT22;43667;53.036;6.740;2022-10-16T02:54:03;11.90;99.90
57833;DHT22;43667;53.036;6.740;2022-10-16T02:56:29;11.90;99.90
57833;DHT22;43667;53.036;6.740;2022-10-16T02:58:56;11.90;99.90
57833;DHT22;43667;53.036;6.740;2022-10-16T03:01:21;12.00;99.90
57833;DHT22;43667;53.036;6.740;2022-10-16T03:03:47;12.00;99.90
57833;DHT22;43667;53.036;6.740;2022-10-16T03:06:13;12.00;99.90
57833;DHT22;43667;53.036;6.740;2022-10-16T03:08:38;12.00;99.90
57833;DHT22;43667;53.036;6.740;2022-10-16T03:11:04;12.00;99.90
57833;DHT22;43667;53.036;6.740;2022-10-16T03:13:30;12.10;99.90
57833;DHT22;43667;53.036;6.740;2022-10-16T03:15:55;12.10;99.90
57833;DHT22;43667;53.036;6.740;2022-10-16T03:18:21;12.10;99.90
57833;DHT22;43667;53.036;6.740;2022-10-16T03:20:46;12.10;99.90
57833;DHT22;43667;53.036;6.740;2022-10-16T03:23:13;12.10;99.90
57833;DHT22;43667;53.036;6.740;2022-10-16T03:25:39;12.10;99.90
57833;DHT22;43667;53.036;6.740;2022-10-16T03:28:04;12.10;99.90
57833;DHT22;43667;53.036;6.740;2022-10-16T03:30:30;12.10;99.90
57833;DHT22;43667;53.036;6.740;2022-10-16T03:32:55;12.10;99.90
57833;DHT22;43667;53.036;6.740;2022-10-16T03:35:22;12.10;99.90
57833;DHT22;43667;53.036;6.740;2022-10-16T03:37:47;12.10;99.90
57833;DHT22;43667;53.036;6.740;2022-10-16T03:40:13;12.10;99.90
57833;DHT22;43667;53.036;6.740;2022-10-16T03:42:39;12.10;99.90
57833;DHT22;43667;53.036;6.740;2022-10-16T03:45:05;12.10;99.90
57833;DHT22;43667;53.036;6.740;2022-10-16T03:47:31;12.10;99.90
57833;DHT22;43667;53.036;6.740;2022-10-16T03:49:59;12.10;99.90
57833;DHT22;43667;53.036;6.740;2022-10-16T03:52:24;12.10;99.90
57833;DHT22;43667;53.036;6.740;2022-10-16T03:54:50;12.10;99.90
57833;DHT22;43667;53.036;6.740;2022-10-16T03:57:16;12.10;99.90
57833;DHT22;43667;53.036;6.740;2022-10-16T03:59:41;12.10;99.90
57833;DHT22;43667;53.036;6.740;2022-10-16T04:02:07;12.10;99.90
57833;DHT22;43667;53.036;6.740;2022-10-16T04:04:33;12.10;99.90
57833;DHT22;43667;53.036;6.740;2022-10-16T04:06:59;12.10;99.90
57833;DHT22;43667;53.036;6.740;2022-10-16T04:09:25;12.10;99.90
57833;DHT22;43667;53.036;6.740;2022-10-16T04:11:51;12.10;99.90
57833;DHT22;43667;53.036;6.740;2022-10-16T04:14:16;12.10;99.90
57833;DHT22;43667;53.036;6.740;2022-10-16T04:16:42;12.10;99.90
57833;DHT22;43667;53.036;6.740;2022-10-16T04:19:08;12.00;99.90
57833;DHT22;43667;53.036;6.740;2022-10-16T04:21:34;12.00;99.90
57833;DHT22;43667;53.036;6.740;2022-10-16T04:24:00;12.00;99.90
57833;DHT22;43667;53.036;6.740;2022-10-16T04:26:25;12.00;99.90
57833;DHT22;43667;53.036;6.740;2022-10-16T04:28:51;12.00;99.90
57833;DHT22;43667;53.036;6.740;2022-10-16T04:31:16;12.00;99.90
57833;DHT22;43667;53.036;6.740;2022-10-16T04:33:43;12.00;99.90
57833;DHT22;43667;53.036;6.740;2022-10-16T04:36:08;12.00;99.90
57833;DHT22;43667;53.036;6.740;2022-10-16T04:38:34;12.00;99.90
57833;DHT22;43667;53.036;6.740;2022-10-16T04:41:00;12.00;99.90
57833;DHT22;43667;53.036;6.740;2022-10-16T04:43:26;12.00;99.90
57833;DHT22;43667;53.036;6.740;2022-10-16T04:45:52;11.90;99.90
57833;DHT22;43667;53.036;6.740;2022-10-16T04:48:18;11.90;99.90
57833;DHT22;43667;53.036;6.740;2022-10-16T04:50:44;11.90;99.90
57833;DHT22;43667;53.036;6.740;2022-10-16T04:53:09;11.90;99.90
57833;DHT22;43667;53.036;6.740;2022-10-16T04:55:35;11.90;99.90
57833;DHT22;43667;53.036;6.740;2022-10-16T04:58:00;11.90;99.90
57833;DHT22;43667;53.036;6.740;2022-10-16T05:00:26;11.90;99.90
57833;DHT22;43667;53.036;6.740;2022-10-16T05:02:52;11.90;99.90
57833;DHT22;43667;53.036;6.740;2022-10-16T05:05:18;12.00;99.90
57833;DHT22;43667;53.036;6.740;2022-10-16T05:07:45;12.00;99.90
57833;DHT22;43667;53.036;6.740;2022-10-16T05:10:11;12.00;99.90
57833;DHT22;43667;53.036;6.740;2022-10-16T05:12:36;12.10;99.90
57833;DHT22;43667;53.036;6.740;2022-10-16T05:15:03;12.10;99.90
57833;DHT22;43667;53.036;6.740;2022-10-16T05:17:28;12.10;99.90
57833;DHT22;43667;53.036;6.740;2022-10-16T05:19:54;12.10;99.90
57833;DHT22;43667;53.036;6.740;2022-10-16T05:22:19;12.10;99.90
57833;DHT22;43667;53.036;6.740;2022-10-16T05:24:45;12.20;99.90
57833;DHT22;43667;53.036;6.740;2022-10-16T05:27:11;12.20;99.90
57833;DHT22;43667;53.036;6.740;2022-10-16T05:29:47;12.10;99.90
57833;DHT22;43667;53.036;6.740;2022-10-16T05:32:14;12.10;99.90
57833;DHT22;43667;53.036;6.740;2022-10-16T05:34:40;12.20;99.90
57833;DHT22;43667;53.036;6.740;2022-10-16T05:37:06;12.20;99.90
57833;DHT22;43667;53.036;6.740;2022-10-16T05:39:32;12.20;99.90
57833;DHT22;43667;53.036;6.740;2022-10-16T05:41:57;12.20;99.90
57833;DHT22;43667;53.036;6.740;2022-10-16T05:44:23;12.20;99.90
57833;DHT22;43667;53.036;6.740;2022-10-16T05:46:48;12.20;99.90
57833;DHT22;43667;53.036;6.740;2022-10-16T05:49:14;12.20;99.90
57833;DHT22;43667;53.036;6.740;2022-10-16T05:51:40;12.20;99.90
57833;DHT22;43667;53.036;6.740;2022-10-16T05:54:06;12.20;99.90
57833;DHT22;43667;53.036;6.740;2022-10-16T05:56:32;12.20;99.90
57833;DHT22;43667;53.036;6.740;2022-10-16T05:58:57;12.20;99.90
57833;DHT22;43667;53.036;6.740;2022-10-16T06:01:23;12.20;99.90
57833;DHT22;43667;53.036;6.740;2022-10-16T06:03:50;12.20;99.90
57833;DHT22;43667;53.036;6.740;2022-10-16T06:06:21;12.20;99.90
57833;DHT22;43667;53.036;6.740;2022-10-16T06:08:48;12.20;99.90
57833;DHT22;43667;53.036;6.740;2022-10-16T06:11:33;12.20;99.90
57833;DHT22;43667;53.036;6.740;2022-10-16T06:14:00;12.20;99.90
57833;DHT22;43667;53.036;6.740;2022-10-16T06:16:32;12.20;99.90
57833;DHT22;43667;53.036;6.740;2022-10-16T06:18:58;12.20;99.90
57833;DHT22;43667;53.036;6.740;2022-10-16T06:21:28;12.20;99.90
57833;DHT22;43667;53.036;6.740;2022-10-16T06:23:55;12.20;99.90
57833;DHT22;43667;53.036;6.740;2022-10-16T06:26:23;12.30;99.90
57833;DHT22;43667;53.036;6.740;2022-10-16T06:28:49;12.30;99.90
57833;DHT22;43667;53.036;6.740;2022-10-16T06:31:16;12.30;99.90
57833;DHT22;43667;53.036;6.740;2022-10-16T06:33:42;12.30;99.90
57833;DHT22;43667;53.036;6.740;2022-10-16T06:36:11;12.30;99.90
57833;DHT22;43667;53.036;6.740;2022-10-16T06:38:37;12.30;99.90
57833;DHT22;43667;53.036;6.740;2022-10-16T06:41:04;12.40;99.90
57833;DHT22;43667;53.036;6.740;2022-10-16T06:43:31;12.40;99.90
57833;DHT22;43667;53.036;6.740;2022-10-16T06:45:59;12.40;99.90
57833;DHT22;43667;53.036;6.740;2022-10-16T06:48:25;12.40;99.90
57833;DHT22;43667;53.036;6.740;2022-10-16T06:51:03;12.40;99.90
57833;DHT22;43667;53.036;6.740;2022-10-16T06:53:33;12.40;99.90
57833;DHT22;43667;53.036;6.740;2022-10-16T06:56:10;12.40;99.90
57833;DHT22;43667;53.036;6.740;2022-10-16T06:58:35;12.40;99.90
57833;DHT22;43667;53.036;6.740;2022-10-16T07:01:01;12.40;99.90
57833;DHT22;43667;53.036;6.740;2022-10-16T07:03:27;12.50;99.90
57833;DHT22;43667;53.036;6.740;2022-10-16T07:05:52;12.50;99.90
57833;DHT22;43667;53.036;6.740;2022-10-16T07:08:18;12.60;99.90
57833;DHT22;43667;53.036;6.740;2022-10-16T07:10:43;12.60;99.90
57833;DHT22;43667;53.036;6.740;2022-10-16T07:13:09;12.70;99.90
57833;DHT22;43667;53.036;6.740;2022-10-16T07:15:38;12.70;99.90
57833;DHT22;43667;53.036;6.740;2022-10-16T07:18:04;12.70;99.90
57833;DHT22;43667;53.036;6.740;2022-10-16T07:20:29;12.80;99.90
57833;DHT22;43667;53.036;6.740;2022-10-16T07:22:55;12.80;99.90
57833;DHT22;43667;53.036;6.740;2022-10-16T07:25:20;12.80;99.90
57833;DHT22;43667;53.036;6.740;2022-10-16T07:27:46;12.90;99.90
57833;DHT22;43667;53.036;6.740;2022-10-16T07:30:12;12.90;99.90
57833;DHT22;43667;53.036;6.740;2022-10-16T07:32:37;12.90;99.90
57833;DHT22;43667;53.036;6.740;2022-10-16T07:35:03;13.00;99.90
57833;DHT22;43667;53.036;6.740;2022-10-16T07:37:29;13.00;99.90
57833;DHT22;43667;53.036;6.740;2022-10-16T07:39:54;13.10;99.90
57833;DHT22;43667;53.036;6.740;2022-10-16T07:42:20;13.10;99.90
57833;DHT22;43667;53.036;6.740;2022-10-16T07:44:46;13.20;99.90
57833;DHT22;43667;53.036;6.740;2022-10-16T07:47:11;13.20;99.90
57833;DHT22;43667;53.036;6.740;2022-10-16T07:49:37;13.20;99.90
57833;DHT22;43667;53.036;6.740;2022-10-16T07:52:03;13.30;99.90
57833;DHT22;43667;53.036;6.740;2022-10-16T07:54:28;13.30;99.90
57833;DHT22;43667;53.036;6.740;2022-10-16T07:56:54;13.30;99.90
57833;DHT22;43667;53.036;6.740;2022-10-16T07:59:19;13.40;99.90
57833;DHT22;43667;53.036;6.740;2022-10-16T08:01:45;13.30;99.90
57833;DHT22;43667;53.036;6.740;2022-10-16T08:04:11;13.30;99.90
57833;DHT22;43667;53.036;6.740;2022-10-16T08:06:38;13.30;99.90
57833;DHT22;43667;53.036;6.740;2022-10-16T08:09:04;13.30;99.90
57833;DHT22;43667;53.036;6.740;2022-10-16T08:11:30;13.40;99.90
57833;DHT22;43667;53.036;6.740;2022-10-16T08:13:55;13.40;99.90
57833;DHT22;43667;53.036;6.740;2022-10-16T08:16:21;13.40;99.90
57833;DHT22;43667;53.036;6.740;2022-10-16T08:18:47;13.40;99.90
57833;DHT22;43667;53.036;6.740;2022-10-16T08:21:18;13.40;99.90
57833;DHT22;43667;53.036;6.740;2022-10-16T08:23:44;13.40;99.90
57833;DHT22;43667;53.036;6.740;2022-10-16T08:26:11;13.50;99.90
57833;DHT22;43667;53.036;6.740;2022-10-16T08:28:37;13.60;99.90
57833;DHT22;43667;53.036;6.740;2022-10-16T08:31:11;13.70;99.90
57833;DHT22;43667;53.036;6.740;2022-10-16T08:33:38;13.80;99.90
57833;DHT22;43667;53.036;6.740;2022-10-16T08:36:05;13.90;99.90
57833;DHT22;43667;53.036;6.740;2022-10-16T08:38:31;13.90;99.90
57833;DHT22;43667;53.036;6.740;2022-10-16T08:46:52;14.30;99.90
57833;DHT22;43667;53.036;6.740;2022-10-16T08:49:21;14.50;99.90
57833;DHT22;43667;53.036;6.740;2022-10-16T08:51:49;14.60;99.90
57833;DHT22;43667;53.036;6.740;2022-10-16T08:54:29;14.70;99.90
57833;DHT22;43667;53.036;6.740;2022-10-16T08:56:56;14.80;99.90
57833;DHT22;43667;53.036;6.740;2022-10-16T08:59:22;14.90;99.90
57833;DHT22;43667;53.036;6.740;2022-10-16T09:01:50;14.80;99.90
57833;DHT22;43667;53.036;6.740;2022-10-16T09:04:44;14.80;99.90
57833;DHT22;43667;53.036;6.740;2022-10-16T09:07:43;14.90;99.90
57833;DHT22;43667;53.036;6.740;2022-10-16T09:13:23;15.00;99.90
57833;DHT22;43667;53.036;6.740;2022-10-16T09:16:30;15.10;99.90
57833;DHT22;43667;53.036;6.740;2022-10-16T09:21:37;15.40;99.90
57833;DHT22;43667;53.036;6.740;2022-10-16T09:24:13;15.40;99.90
57833;DHT22;43667;53.036;6.740;2022-10-16T09:26:39;15.50;99.90
57833;DHT22;43667;53.036;6.740;2022-10-16T09:29:05;15.80;99.90
57833;DHT22;43667;53.036;6.740;2022-10-16T09:31:31;16.10;99.90
57833;DHT22;43667;53.036;6.740;2022-10-16T09:34:02;16.30;99.90
57833;DHT22;43667;53.036;6.740;2022-10-16T09:36:38;16.40;99.90
57833;DHT22;43667;53.036;6.740;2022-10-16T09:39:10;16.40;99.90
57833;DHT22;43667;53.036;6.740;2022-10-16T09:41:43;16.40;99.90
57833;DHT22;43667;53.036;6.740;2022-10-16T09:44:27;16.30;99.90
57833;DHT22;43667;53.036;6.740;2022-10-16T09:47:14;16.30;99.90
57833;DHT22;43667;53.036;6.740;2022-10-16T09:49:51;16.30;99.90
57833;DHT22;43667;53.036;6.740;2022-10-16T09:52:20;16.30;99.90
57833;DHT22;43667;53.036;6.740;2022-10-16T09:57:23;16.30;99.90
57833;DHT22;43667;53.036;6.740;2022-10-16T09:59:56;16.30;99.90
57833;DHT22;43667;53.036;6.740;2022-10-16T10:02:32;16.40;99.90
57833;DHT22;43667;53.036;6.740;2022-10-16T10:04:59;16.40;99.90
57833;DHT22;43667;53.036;6.740;2022-10-16T10:07:26;16.40;99.90
57833;DHT22;43667;53.036;6.740;2022-10-16T10:09:53;16.40;99.90
57833;DHT22;43667;53.036;6.740;2022-10-16T10:12:27;16.40;99.90
57833;DHT22;43667;53.036;6.740;2022-10-16T10:14:56;16.40;99.90
57833;DHT22;43667;53.036;6.740;2022-10-16T10:17:27;16.30;99.90
57833;DHT22;43667;53.036;6.740;2022-10-16T10:20:01;16.20;99.90
57833;DHT22;43667;53.036;6.740;2022-10-16T10:22:41;16.20;99.90
57833;DHT22;43667;53.036;6.740;2022-10-16T10:34:00;16.20;99.90
57833;DHT22;43667;53.036;6.740;2022-10-16T10:36:36;16.30;99.90
57833;DHT22;43667;53.036;6.740;2022-10-16T10:39:12;16.40;99.90
57833;DHT22;43667;53.036;6.740;2022-10-16T10:42:31;16.50;99.90
57833;DHT22;43667;53.036;6.740;2022-10-16T10:45:07;16.60;99.90
57833;DHT22;43667;53.036;6.740;2022-10-16T10:48:03;16.70;99.90
57833;DHT22;43667;53.036;6.740;2022-10-16T10:51:01;16.80;99.90
57833;DHT22;43667;53.036;6.740;2022-10-16T10:53:45;17.00;99.90
57833;DHT22;43667;53.036;6.740;2022-10-16T11:04:45;17.20;99.90
57833;DHT22;43667;53.036;6.740;2022-10-16T11:07:19;17.20;99.90
57833;DHT22;43667;53.036;6.740;2022-10-16T11:09:53;17.10;99.90
57833;DHT22;43667;53.036;6.740;2022-10-16T11:12:24;17.20;99.90
57833;DHT22;43667;53.036;6.740;2022-10-16T11:15:04;17.20;99.90
57833;DHT22;43667;53.036;6.740;2022-10-16T11:17:39;17.40;99.90
57833;DHT22;43667;53.036;6.740;2022-10-16T11:20:26;17.60;99.90
57833;DHT22;43667;53.036;6.740;2022-10-16T11:25:25;17.90;99.90
57833;DHT22;43667;53.036;6.740;2022-10-16T11:41:52;17.40;99.90
57833;DHT22;43667;53.036;6.740;2022-10-16T11:44:36;17.20;99.90
57833;DHT22;43667;53.036;6.740;2022-10-16T11:50:03;17.20;99.90
57833;DHT22;43667;53.036;6.740;2022-10-16T11:52:51;17.10;99.90
57833;DHT22;43667;53.036;6.740;2022-10-16T11:55:20;17.00;99.90
57833;DHT22;43667;53.036;6.740;2022-10-16T11:57:57;17.10;99.90
57833;DHT22;43667;53.036;6.740;2022-10-16T12:00:29;17.30;99.90
57833;DHT22;43667;53.036;6.740;2022-10-16T12:06:03;17.80;99.90
57833;DHT22;43667;53.036;6.740;2022-10-16T12:08:34;18.00;99.90
57833;DHT22;43667;53.036;6.740;2022-10-16T12:13:46;18.10;99.20
57833;DHT22;43667;53.036;6.740;2022-10-16T12:18:44;18.10;99.90
57833;DHT22;43667;53.036;6.740;2022-10-16T12:21:11;18.10;99.90
57833;DHT22;43667;53.036;6.740;2022-10-16T12:23:51;18.10;99.90
57833;DHT22;43667;53.036;6.740;2022-10-16T12:26:33;18.30;99.90
57833;DHT22;43667;53.036;6.740;2022-10-16T12:29:37;18.40;99.90
57833;DHT22;43667;53.036;6.740;2022-10-16T12:32:06;18.50;96.00
57833;DHT22;43667;53.036;6.740;2022-10-16T12:34:44;18.60;98.60
57833;DHT22;43667;53.036;6.740;2022-10-16T12:39:49;18.70;97.50
57833;DHT22;43667;53.036;6.740;2022-10-16T12:42:34;18.70;96.00
57833;DHT22;43667;53.036;6.740;2022-10-16T12:45:00;18.50;93.10
57833;DHT22;43667;53.036;6.740;2022-10-16T12:49:55;18.10;95.60
57833;DHT22;43667;53.036;6.740;2022-10-16T12:52:38;17.80;96.90
57833;DHT22;43667;53.036;6.740;2022-10-16T12:55:04;17.70;97.30
57833;DHT22;43667;53.036;6.740;2022-10-16T13:00:28;17.60;98.80
57833;DHT22;43667;53.036;6.740;2022-10-16T13:03:20;17.50;97.80
57833;DHT22;43667;53.036;6.740;2022-10-16T13:06:05;17.50;99.20
57833;DHT22;43667;53.036;6.740;2022-10-16T13:08:50;17.40;99.90
57833;DHT22;43667;53.036;6.740;2022-10-16T13:11:21;17.30;99.90
57833;DHT22;43667;53.036;6.740;2022-10-16T13:13:56;17.30;99.90
57833;DHT22;43667;53.036;6.740;2022-10-16T13:16:57;17.50;99.90
57833;DHT22;43667;53.036;6.740;2022-10-16T13:22:37;17.70;99.90
57833;DHT22;43667;53.036;6.740;2022-10-16T13:30:56;17.70;98.10
57833;DHT22;43667;53.036;6.740;2022-10-16T13:33:39;17.60;98.30
57833;DHT22;43667;53.036;6.740;2022-10-16T13:36:06;17.40;99.10
57833;DHT22;43667;53.036;6.740;2022-10-16T13:38:34;17.30;99.70
57833;DHT22;43667;53.036;6.740;2022-10-16T13:41:05;17.10;99.90
57833;DHT22;43667;53.036;6.740;2022-10-16T13:43:50;17.10;97.50
57833;DHT22;43667;53.036;6.740;2022-10-16T13:46:24;17.00;95.80
57833;DHT22;43667;53.036;6.740;2022-10-16T13:49:01;17.00;94.80
57833;DHT22;43667;53.036;6.740;2022-10-16T13:51:27;17.00;96.90
57833;DHT22;43667;53.036;6.740;2022-10-16T13:53:55;16.80;95.60
57833;DHT22;43667;53.036;6.740;2022-10-16T13:56:22;16.70;97.20
57833;DHT22;43667;53.036;6.740;2022-10-16T13:59:02;16.70;97.40
57833;DHT22;43667;53.036;6.740;2022-10-16T14:01:30;16.50;97.70
57833;DHT22;43667;53.036;6.740;2022-10-16T14:04:05;16.50;99.90
57833;DHT22;43667;53.036;6.740;2022-10-16T14:06:32;16.50;99.90
57833;DHT22;43667;53.036;6.740;2022-10-16T14:09:12;16.60;99.80
57833;DHT22;43667;53.036;6.740;2022-10-16T14:11:48;16.70;99.90
57833;DHT22;43667;53.036;6.740;2022-10-16T14:14:40;16.90;99.90
57833;DHT22;43667;53.036;6.740;2022-10-16T14:17:17;16.90;99.60
57833;DHT22;43667;53.036;6.740;2022-10-16T14:19:47;17.00;99.00
57833;DHT22;43667;53.036;6.740;2022-10-16T14:22:32;17.10;98.10
57833;DHT22;43667;53.036;6.740;2022-10-16T14:24:59;17.20;95.60
57833;DHT22;43667;53.036;6.740;2022-10-16T14:27:35;17.10;98.00
57833;DHT22;43667;53.036;6.740;2022-10-16T14:30:17;17.10;98.60
57833;DHT22;43667;53.036;6.740;2022-10-16T14:32:54;17.00;99.30
57833;DHT22;43667;53.036;6.740;2022-10-16T14:35:32;17.00;99.50
57833;DHT22;43667;53.036;6.740;2022-10-16T14:38:00;16.90;99.90
57833;DHT22;43667;53.036;6.740;2022-10-16T14:40:31;16.80;99.90
57833;DHT22;43667;53.036;6.740;2022-10-16T14:42:59;16.70;99.90
57833;DHT22;43667;53.036;6.740;2022-10-16T14:45:28;16.70;99.90
57833;DHT22;43667;53.036;6.740;2022-10-16T14:48:00;16.60;99.90
57833;DHT22;43667;53.036;6.740;2022-10-16T14:50:26;16.50;99.90
57833;DHT22;43667;53.036;6.740;2022-10-16T14:52:52;16.50;99.90
57833;DHT22;43667;53.036;6.740;2022-10-16T14:55:18;16.40;99.90
57833;DHT22;43667;53.036;6.740;2022-10-16T14:57:44;16.40;99.90
57833;DHT22;43667;53.036;6.740;2022-10-16T15:00:19;16.30;99.90
57833;DHT22;43667;53.036;6.740;2022-10-16T15:02:47;16.30;99.90
57833;DHT22;43667;53.036;6.740;2022-10-16T15:07:47;16.20;99.90
57833;DHT22;43667;53.036;6.740;2022-10-16T15:10:15;16.10;99.90
57833;DHT22;43667;53.036;6.740;2022-10-16T15:12:42;16.10;99.90
57833;DHT22;43667;53.036;6.740;2022-10-16T15:15:37;16.10;99.90
57833;DHT22;43667;53.036;6.740;2022-10-16T15:18:05;16.10;99.90
57833;DHT22;43667;53.036;6.740;2022-10-16T15:20:35;16.00;99.90
57833;DHT22;43667;53.036;6.740;2022-10-16T15:23:04;15.90;99.90
57833;DHT22;43667;53.036;6.740;2022-10-16T15:25:31;15.90;99.90
57833;DHT22;43667;53.036;6.740;2022-10-16T15:28:00;15.90;99.90
57833;DHT22;43667;53.036;6.740;2022-10-16T15:30:27;15.80;99.90
57833;DHT22;43667;53.036;6.740;2022-10-16T15:32:53;15.70;99.90
57833;DHT22;43667;53.036;6.740;2022-10-16T15:35:19;15.70;99.90
57833;DHT22;43667;53.036;6.740;2022-10-16T15:37:46;15.70;99.90
57833;DHT22;43667;53.036;6.740;2022-10-16T15:40:12;15.60;99.90
57833;DHT22;43667;53.036;6.740;2022-10-16T15:42:38;15.60;99.90
57833;DHT22;43667;53.036;6.740;2022-10-16T15:45:04;15.60;99.90
57833;DHT22;43667;53.036;6.740;2022-10-16T15:47:29;15.50;99.90
57833;DHT22;43667;53.036;6.740;2022-10-16T15:49:55;15.40;99.90
57833;DHT22;43667;53.036;6.740;2022-10-16T15:52:20;15.30;99.90
57833;DHT22;43667;53.036;6.740;2022-10-16T15:54:46;15.30;99.90
57833;DHT22;43667;53.036;6.740;2022-10-16T15:57:12;15.30;99.90
57833;DHT22;43667;53.036;6.740;2022-10-16T15:59:37;15.10;99.90
57833;DHT22;43667;53.036;6.740;2022-10-16T16:02:03;15.00;99.90
57833;DHT22;43667;53.036;6.740;2022-10-16T16:04:31;15.00;99.90
57833;DHT22;43667;53.036;6.740;2022-10-16T16:06:57;14.90;99.90
57833;DHT22;43667;53.036;6.740;2022-10-16T16:09:23;14.90;99.90
57833;DHT22;43667;53.036;6.740;2022-10-16T16:11:49;14.80;99.90
57833;DHT22;43667;53.036;6.740;2022-10-16T16:14:16;14.70;99.90
57833;DHT22;43667;53.036;6.740;2022-10-16T16:16:42;14.70;99.90
57833;DHT22;43667;53.036;6.740;2022-10-16T16:19:08;14.70;99.90
57833;DHT22;43667;53.036;6.740;2022-10-16T16:21:34;14.60;99.90
57833;DHT22;43667;53.036;6.740;2022-10-16T16:24:00;14.50;99.90
57833;DHT22;43667;53.036;6.740;2022-10-16T16:26:28;14.50;99.90
57833;DHT22;43667;53.036;6.740;2022-10-16T16:28:59;14.40;99.90
57833;DHT22;43667;53.036;6.740;2022-10-16T16:31:26;14.20;99.90
57833;DHT22;43667;53.036;6.740;2022-10-16T16:33:53;14.10;99.90
57833;DHT22;43667;53.036;6.740;2022-10-16T16:36:18;14.00;99.90
57833;DHT22;43667;53.036;6.740;2022-10-16T16:38:45;13.90;99.90
57833;DHT22;43667;53.036;6.740;2022-10-16T16:41:21;13.80;99.90
57833;DHT22;43667;53.036;6.740;2022-10-16T16:43:46;13.80;99.90
57833;DHT22;43667;53.036;6.740;2022-10-16T16:46:16;13.70;99.90
57833;DHT22;43667;53.036;6.740;2022-10-16T16:48:42;13.60;99.90
57833;DHT22;43667;53.036;6.740;2022-10-16T16:51:13;13.60;99.90
57833;DHT22;43667;53.036;6.740;2022-10-16T16:53:42;13.50;99.90
57833;DHT22;43667;53.036;6.740;2022-10-16T16:56:08;13.50;99.90
57833;DHT22;43667;53.036;6.740;2022-10-16T16:58:34;13.40;99.90
57833;DHT22;43667;53.036;6.740;2022-10-16T17:01:01;13.40;99.90
57833;DHT22;43667;53.036;6.740;2022-10-16T17:03:32;13.30;99.90
57833;DHT22;43667;53.036;6.740;2022-10-16T17:06:06;13.20;99.90
57833;DHT22;43667;53.036;6.740;2022-10-16T17:08:36;13.20;99.90
57833;DHT22;43667;53.036;6.740;2022-10-16T17:11:02;13.10;99.90
57833;DHT22;43667;53.036;6.740;2022-10-16T17:13:31;13.00;99.90
57833;DHT22;43667;53.036;6.740;2022-10-16T17:15:57;12.90;99.90
57833;DHT22;43667;53.036;6.740;2022-10-16T17:18:23;12.80;99.90
57833;DHT22;43667;53.036;6.740;2022-10-16T17:20:49;12.80;99.90